createdAt,value
2023-04-03T00:01:26.419Z,5.10
2023-04-03T00:03:58.626Z,5.10
2023-04-03T00:06:27.130Z,5.00
2023-04-03T00:08:56.990Z,5.00
2023-04-03T00:11:25.026Z,5.00
2023-04-03T00:13:53.379Z,5.00
2023-04-03T00:16:21.503Z,5.10
2023-04-03T00:18:49.591Z,5.00
2023-04-03T00:21:17.847Z,5.00
2023-04-03T00:23:45.974Z,5.10
2023-04-03T00:26:16.241Z,5.10
2023-04-03T00:28:44.611Z,5.00
2023-04-03T00:31:13.393Z,5.00
2023-04-03T00:33:41.441Z,5.00
2023-04-03T00:36:11.399Z,5.00
2023-04-03T00:38:39.943Z,5.00
2023-04-03T00:41:08.498Z,5.00
2023-04-03T00:43:37.867Z,5.00
2023-04-03T00:46:06.421Z,5.00
2023-04-03T00:48:36.670Z,4.90
2023-04-03T00:51:06.095Z,4.90
2023-04-03T00:53:37.477Z,4.90
2023-04-03T00:56:08.042Z,4.90
2023-04-03T00:58:39.138Z,4.80
2023-04-03T01:01:10.276Z,4.80
2023-04-03T01:03:38.493Z,4.90
2023-04-03T01:06:07.919Z,4.80
2023-04-03T01:08:36.913Z,4.80
2023-04-03T01:11:05.705Z,4.80
2023-04-03T01:13:34.905Z,4.80
2023-04-03T01:16:05.499Z,4.80
2023-04-03T01:18:36.345Z,4.80
2023-04-03T01:21:25.244Z,4.80
2023-04-03T01:23:59.720Z,4.80
2023-04-03T01:26:28.249Z,4.80
2023-04-03T01:28:57.149Z,4.80
2023-04-03T01:31:27.025Z,4.80
2023-04-03T01:33:58.485Z,4.80
2023-04-03T01:36:28.198Z,4.80
2023-04-03T01:38:57.499Z,4.70
2023-04-03T01:41:26.438Z,4.70
2023-04-03T01:44:01.068Z,4.70
2023-04-03T01:46:29.227Z,4.80
2023-04-03T01:48:59.124Z,4.90
2023-04-03T01:51:27.223Z,4.90
2023-04-03T01:53:55.396Z,4.90
2023-04-03T01:56:23.429Z,4.90
2023-04-03T01:58:52.004Z,5.00
2023-04-03T02:01:20.406Z,5.10
2023-04-03T02:03:48.926Z,5.00
2023-04-03T02:06:18.621Z,5.00
2023-04-03T02:08:46.675Z,5.00
2023-04-03T02:11:16.561Z,5.00
2023-04-03T02:13:44.615Z,4.90
2023-04-03T02:16:13.818Z,4.90
2023-04-03T02:18:41.947Z,4.80
2023-04-03T02:21:10.629Z,4.80
2023-04-03T02:23:40.083Z,4.90
2023-04-03T02:26:09.452Z,4.90
2023-04-03T02:28:37.534Z,4.90
2023-04-03T02:31:07.582Z,4.80
2023-04-03T02:33:37.765Z,4.80
2023-04-03T02:36:10.457Z,4.90
2023-04-03T02:38:41.673Z,4.90
2023-04-03T02:41:12.576Z,4.80
2023-04-03T02:43:41.219Z,4.90
2023-04-03T02:46:09.674Z,4.90
2023-04-03T02:48:38.186Z,4.90
2023-04-03T02:51:06.925Z,4.90
2023-04-03T02:53:35.408Z,5.00
2023-04-03T02:56:11.732Z,5.00
2023-04-03T02:58:40.255Z,5.00
2023-04-03T03:01:10.133Z,5.00
2023-04-03T03:03:38.786Z,5.00
2023-04-03T03:06:07.749Z,5.00
2023-04-03T03:08:36.059Z,5.00
2023-04-03T03:11:04.791Z,5.00
2023-04-03T03:13:34.337Z,4.90
2023-04-03T03:16:03.013Z,4.90
2023-04-03T03:18:31.623Z,4.90
2023-04-03T03:21:00.698Z,4.90
2023-04-03T03:23:31.022Z,4.90
2023-04-03T03:25:59.648Z,4.90
2023-04-03T03:28:28.993Z,4.80
2023-04-03T03:30:58.724Z,4.80
2023-04-03T03:33:27.504Z,4.80
2023-04-03T03:35:56.019Z,4.90
2023-04-03T03:38:24.572Z,5.00
2023-04-03T03:40:53.522Z,5.00
2023-04-03T03:43:23.421Z,5.00
2023-04-03T03:45:54.224Z,5.00
2023-04-03T03:48:25.384Z,5.00
2023-04-03T03:50:53.973Z,4.90
2023-04-03T03:53:26.543Z,5.00
2023-04-03T03:55:58.443Z,4.90
2023-04-03T03:58:29.005Z,4.90
2023-04-03T04:00:58.066Z,5.00
2023-04-03T04:03:27.600Z,5.00
2023-04-03T04:05:55.807Z,5.00
2023-04-03T04:08:24.791Z,5.00
2023-04-03T04:10:53.046Z,4.90
2023-04-03T04:13:21.716Z,4.90
2023-04-03T04:15:49.885Z,4.90
2023-04-03T04:18:21.322Z,4.80
2023-04-03T04:20:51.914Z,4.80
2023-04-03T04:23:21.099Z,4.70
2023-04-03T04:25:50.974Z,4.70
2023-04-03T04:28:20.638Z,4.70
2023-04-03T04:30:52.512Z,4.70
2023-04-03T04:33:22.143Z,4.70
2023-04-03T04:35:51.018Z,4.70
2023-04-03T04:38:23.404Z,4.70
2023-04-03T04:40:54.043Z,4.80
2023-04-03T04:43:26.118Z,4.80
2023-04-03T04:46:03.640Z,4.90
2023-04-03T04:48:35.482Z,4.90
2023-04-03T04:51:04.457Z,4.90
2023-04-03T04:53:34.062Z,4.90
2023-04-03T04:56:02.899Z,4.80
2023-04-03T04:58:32.462Z,4.80
2023-04-03T05:01:03.306Z,4.90
2023-04-03T05:03:32.558Z,4.90
2023-04-03T05:06:01.560Z,4.90
2023-04-03T05:08:32.261Z,4.90
2023-04-03T05:11:02.599Z,4.80
2023-04-03T05:13:32.034Z,4.80
2023-04-03T05:16:00.828Z,4.80
2023-04-03T05:18:30.427Z,4.80
2023-04-03T05:21:01.902Z,4.70
2023-04-03T05:23:30.472Z,4.70
2023-04-03T05:26:02.521Z,4.70
2023-04-03T05:28:32.961Z,4.80
2023-04-03T05:31:01.643Z,4.80
2023-04-03T05:33:35.446Z,4.80
2023-04-03T05:36:05.497Z,4.80
2023-04-03T05:38:38.401Z,4.80
2023-04-03T05:41:08.269Z,4.70
2023-04-03T05:43:38.799Z,4.70
2023-04-03T05:46:11.303Z,4.70
2023-04-03T05:48:39.799Z,4.70
2023-04-03T05:51:09.006Z,4.70
2023-04-03T05:53:38.062Z,4.70
2023-04-03T05:56:09.215Z,4.70
2023-04-03T05:58:41.086Z,4.60
2023-04-03T06:01:09.978Z,4.60
2023-04-03T06:03:40.320Z,4.60
2023-04-03T06:06:13.889Z,4.60
2023-04-03T06:08:42.037Z,4.60
2023-04-03T06:11:11.969Z,4.70
2023-04-03T06:13:40.285Z,4.70
2023-04-03T06:16:10.096Z,4.70
2023-04-03T06:18:38.391Z,4.60
2023-04-03T06:21:08.944Z,4.60
2023-04-03T06:23:37.294Z,4.60
2023-04-03T06:26:06.560Z,4.60
2023-04-03T06:28:36.161Z,4.50
2023-04-03T06:31:04.268Z,4.50
2023-04-03T06:33:32.413Z,4.60
2023-04-03T06:36:01.256Z,4.60
2023-04-03T06:38:29.414Z,4.50
2023-04-03T06:40:57.997Z,4.60
2023-04-03T06:43:26.351Z,4.70
2023-04-03T06:45:56.049Z,4.70
2023-04-03T06:48:24.167Z,4.80
2023-04-03T06:50:54.128Z,4.80
2023-04-03T06:53:22.369Z,4.90
2023-04-03T06:55:50.652Z,4.90
2023-04-03T06:58:21.839Z,5.00
2023-04-03T07:00:51.164Z,5.00
2023-04-03T07:03:20.559Z,5.10
2023-04-03T07:05:48.595Z,5.10
2023-04-03T07:08:17.374Z,5.10
2023-04-03T07:10:45.433Z,5.10
2023-04-03T07:13:14.123Z,5.00
2023-04-03T07:15:42.143Z,5.10
2023-04-03T07:18:12.310Z,5.00
2023-04-03T07:20:41.823Z,5.10
2023-04-03T07:23:10.391Z,5.10
2023-04-03T07:25:38.687Z,5.10
2023-04-03T07:28:09.655Z,5.10
2023-04-03T07:30:44.249Z,5.10
2023-04-03T07:33:12.940Z,5.10
2023-04-03T07:35:42.789Z,5.20
2023-04-03T07:38:11.165Z,5.10
2023-04-03T07:40:39.482Z,5.10
2023-04-03T07:43:08.673Z,5.10
2023-04-03T07:45:37.482Z,5.10
2023-04-03T07:48:07.341Z,5.00
2023-04-03T07:50:37.453Z,5.00
2023-04-03T07:53:06.876Z,5.00
2023-04-03T07:55:35.188Z,5.00
2023-04-03T07:58:03.353Z,5.10
2023-04-03T08:00:33.682Z,5.10
2023-04-03T08:03:02.585Z,5.10
2023-04-03T08:05:31.011Z,5.10
2023-04-03T08:07:59.340Z,5.10
2023-04-03T08:10:29.243Z,5.20
2023-04-03T08:12:57.351Z,5.20
2023-04-03T08:15:26.034Z,5.20
2023-04-03T08:17:54.290Z,5.30
2023-04-03T08:20:23.296Z,5.30
2023-04-03T08:22:51.399Z,5.30
2023-04-03T08:25:19.973Z,5.30
2023-04-03T08:27:49.390Z,5.30
2023-04-03T08:30:18.057Z,5.30
2023-04-03T08:32:46.224Z,5.30
2023-04-03T08:35:15.055Z,5.30
2023-04-03T08:37:43.232Z,5.30
2023-04-03T08:40:15.129Z,5.30
2023-04-03T08:42:45.670Z,5.30
2023-04-03T08:45:17.203Z,5.30
2023-04-03T08:47:47.667Z,5.30
2023-04-03T08:50:19.220Z,5.30
2023-04-03T08:52:49.469Z,5.30
2023-04-03T08:55:24.068Z,5.40
2023-04-03T08:57:54.079Z,5.40
2023-04-03T09:00:27.078Z,5.40
2023-04-03T09:02:56.029Z,5.30
2023-04-03T09:05:33.039Z,5.40
2023-04-03T09:08:02.745Z,5.40
2023-04-03T09:10:33.348Z,5.30
2023-04-03T09:13:03.443Z,5.30
2023-04-03T09:15:39.050Z,5.30
2023-04-03T09:18:13.738Z,5.40
2023-04-03T09:20:48.310Z,5.40
2023-04-03T09:23:23.565Z,5.50
2023-04-03T09:25:53.040Z,5.50
2023-04-03T09:28:21.110Z,5.60
2023-04-03T09:30:50.749Z,5.60
2023-04-03T09:33:19.380Z,5.70
2023-04-03T09:35:49.064Z,5.70
2023-04-03T09:38:18.846Z,5.80
2023-04-03T09:40:48.167Z,5.80
2023-04-03T09:43:24.433Z,5.80
2023-04-03T09:45:55.408Z,5.80
2023-04-03T09:48:24.618Z,5.80
2023-04-03T09:50:59.591Z,5.80
2023-04-03T09:53:36.303Z,5.80
2023-04-03T09:56:06.511Z,5.80
2023-04-03T09:58:49.210Z,5.80
2023-04-03T10:01:32.519Z,5.80
2023-04-03T10:04:05.737Z,5.80
2023-04-03T10:06:35.144Z,5.90
2023-04-03T10:09:05.390Z,5.90
2023-04-03T10:11:34.769Z,5.90
2023-04-03T10:14:09.481Z,5.90
2023-04-03T10:16:41.953Z,5.90
2023-04-03T10:19:37.019Z,5.90
2023-04-03T10:22:09.536Z,5.90
2023-04-03T10:24:40.257Z,5.80
2023-04-03T10:27:11.577Z,5.80
2023-04-03T10:29:42.454Z,5.70
2023-04-03T10:32:20.283Z,5.60
2023-04-03T10:35:02.318Z,5.60
2023-04-03T10:37:38.608Z,5.60
2023-04-03T10:40:13.450Z,5.60
2023-04-03T10:42:45.326Z,5.60
2023-04-03T10:45:21.063Z,5.50
2023-04-03T10:47:57.316Z,5.60
2023-04-03T10:50:31.338Z,5.50
2023-04-03T10:53:02.778Z,5.50
2023-04-03T10:55:36.019Z,5.50
2023-04-03T10:58:06.010Z,5.60
2023-04-03T11:00:38.379Z,5.60
2023-04-03T11:03:13.263Z,5.70
2023-04-03T11:05:44.820Z,5.70
2023-04-03T11:08:16.677Z,5.70
2023-04-03T11:10:46.556Z,5.70
2023-04-03T11:13:17.177Z,5.70
2023-04-03T11:15:46.670Z,5.80
2023-04-03T11:18:19.802Z,5.80
2023-04-03T11:20:50.734Z,5.70
2023-04-03T11:23:23.241Z,5.70
2023-04-03T11:25:53.277Z,5.80
2023-04-03T11:28:21.456Z,5.80
2023-04-03T11:30:55.287Z,5.80
2023-04-03T11:33:33.554Z,5.80
2023-04-03T11:36:07.341Z,5.80
2023-04-03T11:38:44.400Z,5.80
2023-04-03T11:41:13.734Z,5.90
2023-04-03T11:43:43.182Z,5.80
2023-04-03T11:46:12.816Z,5.80
2023-04-03T11:48:47.012Z,5.80
2023-04-03T11:51:33.950Z,5.80
2023-04-03T11:54:38.600Z,5.80
2023-04-03T11:57:29.498Z,5.80
2023-04-03T11:59:58.994Z,5.90
2023-04-03T12:02:51.180Z,5.90
2023-04-03T12:05:29.382Z,5.90
2023-04-03T12:08:18.415Z,6.00
2023-04-03T12:11:13.133Z,6.10
2023-04-03T12:13:42.478Z,6.20
2023-04-03T12:16:21.890Z,6.30
2023-04-03T12:19:01.193Z,6.40
2023-04-03T12:21:44.425Z,6.50
2023-04-03T12:24:26.244Z,6.50
2023-04-03T12:27:04.290Z,6.60
2023-04-03T12:29:36.107Z,6.70
2023-04-03T12:32:13.615Z,6.80
2023-04-03T12:34:46.732Z,6.90
2023-04-03T12:37:22.943Z,6.90
2023-04-03T12:39:54.847Z,7.00
2023-04-03T12:42:32.640Z,7.10
2023-04-03T12:45:04.424Z,7.20
2023-04-03T12:47:37.435Z,7.30
2023-04-03T12:50:06.726Z,7.30
2023-04-03T12:52:40.132Z,7.30
2023-04-03T12:55:11.164Z,7.20
2023-04-03T12:57:39.693Z,7.30
2023-04-03T13:00:21.188Z,7.20
2023-04-03T13:02:51.229Z,7.20
2023-04-03T13:05:20.731Z,7.10
2023-04-03T13:07:52.195Z,7.10
2023-04-03T13:10:20.777Z,7.10
2023-04-03T13:12:52.273Z,7.20
2023-04-03T13:15:22.352Z,7.20
2023-04-03T13:17:53.749Z,7.20
2023-04-03T13:20:24.954Z,7.30
2023-04-03T13:22:55.925Z,7.20
2023-04-03T13:25:25.424Z,7.10
2023-04-03T13:28:00.370Z,7.10
2023-04-03T13:30:39.995Z,7.00
2023-04-03T13:33:21.807Z,7.00
2023-04-03T13:35:56.060Z,7.00
2023-04-03T13:38:25.519Z,6.90
2023-04-03T13:40:54.554Z,6.80
2023-04-03T13:43:23.687Z,6.70
2023-04-03T13:45:55.881Z,6.70
2023-04-03T13:48:28.375Z,6.60
2023-04-03T13:51:01.864Z,6.60
2023-04-03T13:53:30.994Z,6.60
2023-04-03T13:56:01.719Z,6.60
2023-04-03T13:58:30.516Z,6.70
2023-04-03T14:01:01.977Z,6.70
2023-04-03T14:03:33.057Z,6.70
2023-04-03T14:06:02.673Z,6.90
2023-04-03T14:08:42.339Z,7.30
2023-04-03T14:11:14.832Z,7.70
2023-04-03T14:13:43.239Z,8.00
2023-04-03T14:16:16.231Z,8.40
2023-04-03T14:18:46.252Z,8.80
2023-04-03T14:21:15.894Z,9.20
2023-04-03T14:23:44.073Z,9.50
2023-04-03T14:26:13.980Z,9.60
2023-04-03T14:28:44.137Z,9.80
2023-04-03T14:31:14.076Z,9.90
2023-04-03T14:33:42.465Z,9.80
2023-04-03T14:36:16.390Z,9.70
2023-04-03T14:38:45.360Z,9.60
2023-04-03T14:41:16.909Z,9.50
2023-04-03T14:43:46.748Z,9.30
2023-04-03T14:46:16.857Z,9.20
2023-04-03T14:48:46.143Z,9.10
2023-04-03T14:51:16.266Z,9.00
2023-04-03T14:53:45.857Z,9.00
2023-04-03T14:56:15.231Z,8.90
2023-04-03T14:58:43.827Z,8.80
2023-04-03T15:01:12.919Z,8.80
2023-04-03T15:03:41.175Z,8.80
2023-04-03T15:06:10.799Z,8.90
2023-04-03T15:08:42.081Z,8.90
2023-04-03T15:11:11.322Z,8.80
2023-04-03T15:13:40.401Z,8.80
2023-04-03T15:16:14.076Z,8.70
2023-04-03T15:18:42.394Z,8.60
2023-04-03T15:21:10.735Z,8.60
2023-04-03T15:23:44.530Z,8.50
2023-04-03T15:26:12.657Z,7.70
2023-04-03T15:28:42.164Z,8.40
2023-04-03T15:31:11.100Z,8.40
2023-04-03T15:33:39.154Z,8.30
2023-04-03T15:36:22.638Z,8.30
2023-04-03T15:38:57.633Z,8.20
2023-04-03T15:41:26.199Z,8.20
2023-04-03T15:43:54.931Z,8.10
2023-04-03T15:46:23.497Z,8.00
2023-04-03T15:48:51.881Z,7.90
2023-04-03T15:51:22.542Z,7.90
2023-04-03T15:53:51.494Z,7.70
2023-04-03T15:56:21.390Z,7.70
2023-04-03T15:58:49.502Z,7.60
2023-04-03T16:01:18.665Z,7.50
2023-04-03T16:03:47.245Z,7.50
2023-04-03T16:06:16.170Z,7.50
2023-04-03T16:08:44.709Z,7.50
2023-04-03T16:11:13.093Z,7.40
2023-04-03T16:13:44.492Z,7.30
2023-04-03T16:16:12.915Z,7.30
2023-04-03T16:18:42.114Z,7.20
2023-04-03T16:21:10.320Z,7.20
2023-04-03T16:23:38.991Z,7.10
2023-04-03T16:26:07.067Z,7.00
2023-04-03T16:28:37.033Z,7.00
2023-04-03T16:31:10.419Z,6.90
2023-04-03T16:33:40.409Z,6.90
2023-04-03T16:36:26.105Z,6.90
2023-04-03T16:38:57.418Z,6.80
2023-04-03T16:41:25.502Z,6.70
2023-04-03T16:43:53.862Z,6.70
2023-04-03T16:46:30.679Z,6.60
2023-04-03T16:49:03.853Z,6.50
2023-04-03T16:51:32.692Z,6.50
2023-04-03T16:54:01.465Z,6.50
2023-04-03T16:56:34.971Z,6.50
2023-04-03T16:59:05.860Z,6.40
2023-04-03T17:01:36.328Z,6.40
2023-04-03T17:04:05.429Z,6.40
2023-04-03T17:06:36.189Z,6.40
2023-04-03T17:09:08.207Z,6.40
2023-04-03T17:11:36.955Z,6.30
2023-04-03T17:14:10.812Z,6.30
2023-04-03T17:16:45.557Z,6.30
2023-04-03T17:19:14.166Z,6.30
2023-04-03T17:21:42.374Z,6.20
2023-04-03T17:24:13.439Z,6.20
2023-04-03T17:26:43.956Z,6.10
2023-04-03T17:29:12.101Z,6.00
2023-04-03T17:31:40.591Z,5.90
2023-04-03T17:34:12.023Z,6.00
2023-04-03T17:36:41.618Z,5.90
2023-04-03T17:39:09.821Z,5.90
2023-04-03T17:41:40.248Z,5.90
2023-04-03T17:44:08.426Z,5.80
2023-04-03T17:46:36.804Z,5.80
2023-04-03T17:49:05.229Z,5.70
2023-04-03T17:51:35.788Z,5.70
2023-04-03T17:54:03.866Z,5.60
2023-04-03T17:56:34.241Z,5.60
2023-04-03T17:59:02.621Z,5.50
2023-04-03T18:01:33.089Z,5.50
2023-04-03T18:04:02.228Z,5.40
2023-04-03T18:06:34.075Z,5.40
2023-04-03T18:09:06.627Z,5.40
2023-04-03T18:11:36.668Z,5.40
2023-04-03T18:14:07.485Z,5.40
2023-04-03T18:16:37.716Z,5.40
2023-04-03T18:19:22.134Z,5.40
2023-04-03T18:21:52.686Z,5.30
2023-04-03T18:24:22.946Z,5.20
2023-04-03T18:26:52.609Z,5.10
2023-04-03T18:29:21.175Z,5.10
2023-04-03T18:31:51.623Z,5.10
2023-04-03T18:34:20.554Z,5.00
2023-04-03T18:36:50.089Z,5.00
2023-04-03T18:39:18.675Z,5.00
2023-04-03T18:41:48.600Z,4.90
2023-04-03T18:44:18.708Z,4.90
2023-04-03T18:46:46.795Z,4.90
2023-04-03T18:49:18.346Z,5.00
2023-04-03T18:51:46.863Z,4.80
2023-04-03T18:54:16.320Z,4.80
2023-04-03T18:56:45.069Z,4.80
2023-04-03T18:59:14.577Z,4.70
2023-04-03T19:01:42.766Z,4.80
2023-04-03T19:04:11.761Z,4.70
2023-04-03T19:06:39.847Z,4.60
2023-04-03T19:09:08.624Z,4.60
2023-04-03T19:11:36.817Z,4.60
2023-04-03T19:14:16.191Z,4.60
2023-04-03T19:16:46.837Z,4.60
2023-04-03T19:19:18.694Z,4.50
2023-04-03T19:21:46.715Z,4.50
2023-04-03T19:24:15.000Z,4.50
2023-04-03T19:26:43.649Z,4.40
2023-04-03T19:29:12.609Z,4.40
2023-04-03T19:31:40.758Z,4.40
2023-04-03T19:34:10.758Z,4.40
2023-04-03T19:36:40.252Z,4.30
2023-04-03T19:39:08.429Z,4.30
2023-04-03T19:44:26.668Z,4.30
2023-04-03T19:46:55.315Z,4.20
2023-04-03T19:49:25.278Z,4.10
2023-04-03T19:51:54.612Z,4.20
2023-04-03T19:54:23.163Z,4.20
2023-04-03T19:56:52.456Z,4.20
2023-04-03T19:59:20.624Z,4.10
2023-04-03T20:01:49.328Z,4.10
2023-04-03T20:04:17.627Z,4.00
2023-04-03T20:06:47.537Z,4.00
2023-04-03T20:09:16.082Z,3.90
2023-04-03T20:11:44.557Z,3.90
2023-04-03T20:14:12.594Z,3.80
2023-04-03T20:16:42.285Z,3.80
2023-04-03T20:19:10.638Z,3.70
2023-04-03T20:21:40.352Z,3.70
2023-04-03T20:24:12.059Z,3.70
2023-04-03T20:26:46.375Z,3.60
2023-04-03T20:29:16.614Z,3.60
2023-04-03T20:31:45.021Z,3.60
2023-04-03T20:34:13.929Z,3.60
2023-04-03T20:36:42.933Z,3.60
2023-04-03T20:39:12.602Z,3.60
2023-04-03T20:41:41.003Z,3.60
2023-04-03T20:44:09.373Z,3.60
2023-04-03T20:46:51.295Z,3.50
2023-04-03T20:49:25.050Z,3.40
2023-04-03T20:51:53.648Z,3.40
2023-04-03T20:54:23.331Z,3.40
2023-04-03T20:56:51.562Z,3.40
2023-04-03T20:59:20.567Z,3.40
2023-04-03T21:01:49.038Z,3.40
2023-04-03T21:04:21.301Z,3.30
2023-04-03T21:07:07.945Z,3.30
2023-04-03T21:09:54.510Z,3.30
2023-04-03T21:12:41.199Z,3.20
2023-04-03T21:15:28.497Z,3.20
2023-04-03T21:18:04.960Z,3.20
2023-04-03T21:20:33.148Z,3.20
2023-04-03T21:23:01.192Z,3.20
2023-04-03T21:25:30.106Z,3.20
2023-04-03T21:27:58.526Z,3.10
2023-04-03T21:30:27.396Z,3.10
2023-04-03T21:32:56.448Z,3.10
2023-04-03T21:35:26.176Z,3.10
2023-04-03T21:37:54.487Z,3.10
2023-04-03T21:40:22.688Z,3.10
2023-04-03T21:42:54.667Z,3.10
2023-04-03T21:45:22.810Z,3.10
2023-04-03T21:47:51.192Z,3.10
2023-04-03T21:50:19.547Z,3.10
2023-04-03T21:52:49.405Z,3.00
2023-04-03T21:55:17.510Z,3.00
2023-04-03T21:57:51.294Z,3.00
2023-04-03T22:00:20.491Z,3.00
2023-04-03T22:02:53.166Z,2.90
2023-04-03T22:05:29.325Z,2.90
2023-04-03T22:07:59.322Z,2.80
2023-04-03T22:10:28.103Z,2.90
2023-04-03T22:12:57.101Z,2.90
2023-04-03T22:15:25.116Z,2.90
2023-04-03T22:17:53.349Z,2.90
2023-04-03T22:20:22.378Z,2.90
2023-04-03T22:22:50.646Z,2.90
2023-04-03T22:25:20.614Z,2.90
2023-04-03T22:27:48.649Z,2.90
2023-04-03T22:30:17.209Z,2.90
2023-04-03T22:32:46.037Z,2.90
2023-04-03T22:35:14.220Z,2.80
2023-04-03T22:37:42.926Z,2.80
2023-04-03T22:40:12.157Z,2.70
2023-04-03T22:42:41.791Z,2.70
2023-04-03T22:45:10.838Z,2.70
2023-04-03T22:47:38.937Z,2.80
2023-04-03T22:50:07.620Z,2.80
2023-04-03T22:52:35.853Z,2.80
2023-04-03T22:55:16.527Z,2.80
2023-04-03T22:57:48.876Z,2.80
2023-04-03T23:00:17.632Z,2.80
2023-04-03T23:02:45.849Z,2.80
2023-04-03T23:05:14.156Z,2.80
2023-04-03T23:07:42.567Z,2.90
2023-04-03T23:10:11.313Z,2.80
2023-04-03T23:12:40.412Z,2.70
2023-04-03T23:15:10.635Z,2.70
2023-04-03T23:17:39.283Z,2.70
2023-04-03T23:20:07.850Z,2.70
2023-04-03T23:22:36.249Z,2.80
2023-04-03T23:25:04.399Z,2.70
2023-04-03T23:27:32.681Z,2.60
2023-04-03T23:30:00.701Z,2.60
2023-04-03T23:32:31.649Z,2.60
2023-04-03T23:34:59.898Z,2.50
2023-04-03T23:37:28.849Z,2.60
2023-04-03T23:39:56.859Z,2.60
2023-04-03T23:42:25.450Z,2.50
2023-04-03T23:44:53.713Z,2.50
2023-04-03T23:47:22.101Z,2.50
2023-04-03T23:49:51.912Z,2.40
2023-04-03T23:52:20.387Z,2.50
2023-04-03T23:54:49.407Z,2.50
2023-04-03T23:57:17.627Z,2.50
2023-04-03T23:59:45.745Z,2.40
